createdAt,value
2019-03-26T00:03:00.115Z,3.40
2019-03-26T00:08:02.920Z,3.60
2019-03-26T00:13:06.039Z,3.63
2019-03-26T00:18:08.828Z,3.83
2019-03-26T00:23:11.184Z,3.27
2019-03-26T00:28:14.235Z,3.37
2019-03-26T00:33:17.155Z,3.03
2019-03-26T00:38:19.513Z,3.70
2019-03-26T00:43:22.410Z,3.53
2019-03-26T00:48:25.409Z,3.87
2019-03-26T00:53:28.703Z,3.50
2019-03-26T00:58:31.842Z,3.07
2019-03-26T01:03:34.547Z,3.53
2019-03-26T01:08:48.201Z,3.50
2019-03-26T01:13:50.857Z,3.90
2019-03-26T01:18:53.226Z,3.63
2019-03-26T01:23:55.643Z,3.43
2019-03-26T01:28:57.867Z,3.80
2019-03-26T01:34:00.404Z,4.60
2019-03-26T01:39:03.057Z,3.70
2019-03-26T01:44:05.315Z,3.00
2019-03-26T01:49:07.654Z,3.50
2019-03-26T01:54:10.801Z,3.73
2019-03-26T01:59:13.262Z,3.70
2019-03-26T02:04:15.629Z,3.30
2019-03-26T02:09:18.241Z,2.87
2019-03-26T02:14:20.625Z,3.70
2019-03-26T02:19:23.092Z,3.20
2019-03-26T02:24:25.522Z,3.70
2019-03-26T02:29:27.964Z,3.80
2019-03-26T02:34:30.424Z,3.93
2019-03-26T02:39:33.717Z,4.13
2019-03-26T02:44:36.063Z,4.00
2019-03-26T02:49:46.797Z,3.00
2019-03-26T02:54:49.343Z,3.10
2019-03-26T02:59:51.672Z,3.10
2019-03-26T03:04:54.387Z,4.50
2019-03-26T03:09:57.296Z,3.80
2019-03-26T03:15:00.536Z,3.63
2019-03-26T03:20:03.545Z,3.43
2019-03-26T03:25:06.080Z,3.87
2019-03-26T03:30:08.518Z,3.87
2019-03-26T03:35:12.490Z,4.23
2019-03-26T03:40:14.885Z,3.43
2019-03-26T03:45:30.047Z,3.17
2019-03-26T03:50:32.676Z,3.40
2019-03-26T03:55:35.580Z,4.50
2019-03-26T04:00:38.634Z,3.27
2019-03-26T04:05:41.583Z,3.40
2019-03-26T04:10:44.442Z,3.37
2019-03-26T04:15:46.779Z,2.90
2019-03-26T04:20:49.834Z,3.40
2019-03-26T04:25:52.315Z,3.40
2019-03-26T04:30:54.631Z,3.00
2019-03-26T04:35:57.093Z,3.17
2019-03-26T04:41:00.720Z,4.03
2019-03-26T04:46:03.984Z,4.37
2019-03-26T04:51:06.428Z,4.20
2019-03-26T04:56:09.127Z,3.60
2019-03-26T05:01:11.581Z,3.90
2019-03-26T05:06:14.980Z,3.83
2019-03-26T05:11:17.623Z,3.97
2019-03-26T05:16:19.917Z,3.70
2019-03-26T05:21:22.741Z,4.43
2019-03-26T05:26:26.068Z,4.00
2019-03-26T05:31:28.588Z,4.47
2019-03-26T05:36:30.828Z,4.00
2019-03-26T05:41:35.266Z,4.40
2019-03-26T05:46:41.745Z,5.05
2019-03-26T05:51:49.762Z,4.10
2019-03-26T05:56:52.941Z,4.40
2019-03-26T06:01:55.351Z,4.27
2019-03-26T06:07:04.706Z,4.23
2019-03-26T06:12:02.061Z,4.47
2019-03-26T06:17:04.552Z,4.27
2019-03-26T06:22:06.819Z,5.33
2019-03-26T06:27:09.200Z,5.30
2019-03-26T06:32:11.521Z,4.00
2019-03-26T06:37:17.986Z,4.10
2019-03-26T06:42:18.216Z,3.60
2019-03-26T06:47:21.239Z,4.20
2019-03-26T06:52:25.001Z,4.23
2019-03-26T06:57:35.391Z,3.57
2019-03-26T07:02:31.316Z,4.00
2019-03-26T07:07:33.584Z,4.83
2019-03-26T07:12:37.060Z,3.97
2019-03-26T07:17:39.484Z,3.80
2019-03-26T07:22:41.687Z,3.50
2019-03-26T07:27:43.940Z,4.53
2019-03-26T07:32:46.339Z,3.73
2019-03-26T07:37:48.614Z,3.77
2019-03-26T07:42:50.772Z,4.03
2019-03-26T07:47:53.263Z,3.90
2019-03-26T07:52:56.474Z,3.43
2019-03-26T07:57:59.162Z,4.00
2019-03-26T08:03:01.497Z,4.00
2019-03-26T08:08:04.374Z,4.13
2019-03-26T08:13:06.974Z,4.47
2019-03-26T08:18:09.244Z,3.60
2019-03-26T08:23:11.643Z,3.43
2019-03-26T08:28:13.920Z,4.10
2019-03-26T08:33:16.728Z,4.10
2019-03-26T08:38:19.448Z,4.03
2019-03-26T08:43:21.696Z,3.73
2019-03-26T08:48:24.095Z,3.47
2019-03-26T08:53:27.611Z,3.27
2019-03-26T08:58:31.475Z,3.43
2019-03-26T09:03:33.654Z,4.27
2019-03-26T09:08:35.925Z,3.17
2019-03-26T09:13:38.856Z,3.93
2019-03-26T09:18:42.112Z,3.80
2019-03-26T09:23:44.710Z,4.50
2019-03-26T09:28:48.018Z,3.30
2019-03-26T09:33:50.809Z,3.17
2019-03-26T09:38:53.865Z,3.60
2019-03-26T09:43:56.686Z,3.60
2019-03-26T09:48:59.005Z,3.57
2019-03-26T09:54:01.644Z,3.77
2019-03-26T09:59:04.460Z,3.23
2019-03-26T10:04:06.599Z,3.70
2019-03-26T10:09:08.831Z,3.63
2019-03-26T10:14:11.100Z,3.40
2019-03-26T10:19:16.846Z,3.73
2019-03-26T10:24:18.332Z,3.37
2019-03-26T10:29:29.990Z,2.80
2019-03-26T10:34:24.985Z,2.73
2019-03-26T10:39:27.554Z,3.73
2019-03-26T10:44:29.870Z,3.00
2019-03-26T10:49:32.690Z,3.40
2019-03-26T10:54:35.372Z,3.53
2019-03-26T10:59:38.132Z,3.57
2019-03-26T11:04:40.507Z,3.37
2019-03-26T11:09:43.565Z,3.10
2019-03-26T11:14:46.188Z,2.60
2019-03-26T11:19:49.040Z,3.50
2019-03-26T11:24:51.355Z,2.93
2019-03-26T11:29:53.529Z,3.80
2019-03-26T11:34:57.850Z,3.30
2019-03-26T11:40:00.437Z,3.07
2019-03-26T11:45:03.504Z,3.30
2019-03-26T11:50:05.810Z,3.17
2019-03-26T11:55:08.344Z,2.97
2019-03-26T12:00:12.947Z,2.93
2019-03-26T12:05:15.270Z,2.87
2019-03-26T12:10:18.022Z,3.90
2019-03-26T12:15:20.743Z,2.87
2019-03-26T12:20:23.133Z,2.90
2019-03-26T12:25:26.370Z,3.10
2019-03-26T12:30:33.470Z,2.67
2019-03-26T12:35:35.930Z,3.10
2019-03-26T12:40:38.231Z,2.60
2019-03-26T12:45:42.742Z,2.80
2019-03-26T12:50:46.927Z,2.70
2019-03-26T12:55:52.113Z,3.03
2019-03-26T13:00:55.017Z,3.57
2019-03-26T13:05:57.824Z,3.43
2019-03-26T13:11:00.049Z,3.17
2019-03-26T13:16:02.312Z,2.80
2019-03-26T13:21:04.742Z,3.57
2019-03-26T13:26:06.954Z,2.93
2019-03-26T13:31:09.242Z,3.27
2019-03-26T13:36:11.468Z,3.40
2019-03-26T13:41:13.770Z,3.13
2019-03-26T13:46:15.918Z,3.23
2019-03-26T13:51:18.086Z,3.23
2019-03-26T13:56:20.335Z,3.33
2019-03-26T14:01:22.646Z,4.00
2019-03-26T14:06:24.856Z,3.67
2019-03-26T14:11:27.439Z,3.87
2019-03-26T14:16:29.711Z,3.60
2019-03-26T14:21:32.301Z,4.07
2019-03-26T14:26:35.249Z,3.90
2019-03-26T14:31:37.547Z,3.90
2019-03-26T14:36:39.775Z,4.27
2019-03-26T14:41:42.044Z,4.40
2019-03-26T14:46:44.513Z,4.77
2019-03-26T14:51:46.789Z,4.33
2019-03-26T14:56:49.106Z,5.23
2019-03-26T15:01:51.404Z,4.53
2019-03-26T15:06:53.564Z,4.70
2019-03-26T15:11:55.753Z,5.13
2019-03-26T15:16:58.065Z,6.30
2019-03-26T15:22:00.748Z,5.57
2019-03-26T15:27:03.649Z,6.60
2019-03-26T15:32:05.838Z,6.93
2019-03-26T15:37:10.061Z,6.80
2019-03-26T15:42:12.412Z,7.37
2019-03-26T15:47:14.853Z,6.40
2019-03-26T15:52:17.533Z,5.37
2019-03-26T15:57:20.454Z,7.13
2019-03-26T16:02:22.682Z,5.70
2019-03-26T16:07:24.903Z,5.57
2019-03-26T16:12:40.262Z,5.10
2019-03-26T16:17:32.193Z,5.30
2019-03-26T16:22:38.687Z,5.43
2019-03-26T16:27:40.868Z,6.13
2019-03-26T16:32:48.374Z,6.30
2019-03-26T16:37:50.991Z,6.23
2019-03-26T16:42:53.341Z,5.37
2019-03-26T16:47:56.358Z,5.60
2019-03-26T16:52:58.768Z,6.00
2019-03-26T16:58:00.990Z,5.90
2019-03-26T17:03:04.694Z,5.67
2019-03-26T17:08:08.613Z,5.70
2019-03-26T17:13:10.907Z,7.00
2019-03-26T17:18:13.192Z,5.87
2019-03-26T17:23:15.838Z,5.97
2019-03-26T17:28:18.510Z,6.87
2019-03-26T17:33:20.805Z,6.73
2019-03-26T17:38:23.373Z,7.93
2019-03-26T17:43:25.996Z,7.63
2019-03-26T17:48:28.270Z,7.93
2019-03-26T17:53:30.865Z,7.40
2019-03-26T17:58:33.266Z,7.30
2019-03-26T18:03:37.808Z,8.47
2019-03-26T18:08:40.184Z,8.17
2019-03-26T18:13:44.710Z,7.40
2019-03-26T18:18:47.382Z,9.50
2019-03-26T18:23:49.703Z,8.40
2019-03-26T18:28:55.447Z,8.87
2019-03-26T18:33:57.966Z,8.37
2019-03-26T18:39:00.466Z,8.63
2019-03-26T18:44:02.862Z,9.50
2019-03-26T18:49:05.181Z,10.57
2019-03-26T18:54:07.477Z,9.93
2019-03-26T18:59:10.184Z,9.97
2019-03-26T19:04:12.333Z,9.00
2019-03-26T19:09:14.474Z,8.23
2019-03-26T19:14:16.667Z,8.60
2019-03-26T19:19:18.933Z,8.60
2019-03-26T19:24:21.211Z,8.80
2019-03-26T19:29:23.483Z,8.77
2019-03-26T19:34:25.710Z,8.97
2019-03-26T19:39:27.858Z,8.23
2019-03-26T19:44:30.154Z,10.23
2019-03-26T19:49:32.539Z,8.37
2019-03-26T19:54:34.877Z,8.97
2019-03-26T19:59:37.213Z,9.03
2019-03-26T20:04:40.587Z,10.03
2019-03-26T20:09:42.807Z,8.77
2019-03-26T20:14:44.986Z,9.07
2019-03-26T20:19:47.283Z,9.13
2019-03-26T20:24:49.518Z,9.03
2019-03-26T20:29:52.040Z,9.60
2019-03-26T20:34:54.276Z,10.30
2019-03-26T20:39:56.601Z,9.27
2019-03-26T20:44:58.904Z,9.57
2019-03-26T20:50:01.327Z,9.57
2019-03-26T20:55:04.155Z,9.90
2019-03-26T21:00:07.245Z,10.57
2019-03-26T21:05:10.962Z,10.30
2019-03-26T21:10:13.691Z,9.27
2019-03-26T21:15:16.147Z,9.97
2019-03-26T21:20:18.936Z,9.63
2019-03-26T21:25:21.187Z,10.73
2019-03-26T21:30:23.574Z,9.70
2019-03-26T21:35:28.817Z,10.20
2019-03-26T21:40:30.410Z,9.60
2019-03-26T21:45:36.632Z,10.00
2019-03-26T21:50:38.854Z,9.93
2019-03-26T21:55:41.175Z,9.17
2019-03-26T22:00:44.451Z,10.30
2019-03-26T22:05:48.102Z,8.73
2019-03-26T22:10:50.503Z,10.07
2019-03-26T22:15:52.803Z,9.87
2019-03-26T22:20:55.007Z,9.90
2019-03-26T22:25:57.182Z,8.53
2019-03-26T22:30:59.572Z,6.87
2019-03-26T22:36:01.788Z,8.40
2019-03-26T22:41:04.181Z,7.50
2019-03-26T22:46:06.445Z,8.13
2019-03-26T22:51:08.830Z,7.93
2019-03-26T22:56:10.999Z,8.90
2019-03-26T23:01:14.092Z,7.60
2019-03-26T23:06:16.268Z,7.37
2019-03-26T23:11:18.737Z,6.93
2019-03-26T23:16:20.852Z,7.80
2019-03-26T23:21:23.289Z,7.77
2019-03-26T23:26:25.594Z,7.03
2019-03-26T23:31:30.357Z,7.17
2019-03-26T23:36:32.520Z,6.77
2019-03-26T23:41:34.714Z,6.30
2019-03-26T23:46:36.889Z,6.20
2019-03-26T23:51:39.079Z,7.27
2019-03-26T23:56:41.350Z,6.20
